Atlanta, Nebraska
Current Conditions -  °F | °C
As of 4:15 AM on Sunday 23 Nov 2014 (Local Time) from KHDE Reporting Station
Moderate Fog Moderate Fog  
Wind Chill: 42°   Ceiling: 500
Heat Index: 42°   Visibility: 0.5mi
Dew Point: 41°   Wind: 0mph
Humidity: 95%   Direction: NA
Pressure: 29.46"   Gusts: NA
Location:  40.37°N, 99.47°W
Report Text: KHDE 231015Z AUTO 00000KT 1/2SM FG VV005 06/05 A2946 RMK AO2 T00570050
Loading
Personal Weather Stations






























Interactive Weather Map New forecast layout! Learn more

10-Day Weather Forecast

Advertisements
Track Severe Weather on mobile